Dover, TN (37058)

9:19 AM CDT on August 04, 2015 (GMT -0500)
Dover, TN - LBL | | Change Station
CLOSE
Current Station
Personal Weather Station
Location: Dover, TN
Elevation: 455 ft
Nearby Weather Stations

Elev 455 ft 36.49 °N, 87.81 °W | Updated 10 seconds ago

Clear
Clear
84.6 °F
Feels Like 94 °F
N
0.0
Wind Variable Wind from SSW
Gusts 0.0 mph

Today
High -- | Low -- °F
--% Chance of Precip.
Yesterday
High -- | Low -- °F
Precip. -- in
5:59 AM 7:54 PM
Waning Gibbous, 77% visible
Pressure 29.99 in
Visibility 10.0 miles
Clouds Clear
Heat Index 94 °F
Dew Point 77 °F
Humidity 77%
Rainfall 0.00 in
Snow Depth Not available.
UV 4 out of 12
Pollen 4.70 out of 12
Air Quality Not available.
Flu Activity Not available.
METAR KHOP 041358Z AUTO 21004KT 10SM CLR 28/23 A3000 RMK AO2 RAB1258E06RAB19E22DZB22E26RAB26E29 SLP154 P0000 T02820226

More Conditions Fewer Conditions

Pressure 29.99 in
Visibility 10.0 miles
Clouds Clear
Heat Index 94 °F
Dew Point 77 °F
Humidity 77%
Rainfall 0.00 in
Snow Depth Not available.
UV 4 out of 12
Pollen 4.70 out of 12
Air Quality Not available.
Flu Activity Not available.
METAR KHOP 041358Z AUTO 21004KT 10SM CLR 28/23 A3000 RMK AO2 RAB1258E06RAB19E22DZB22E26RAB26E29 SLP154 P0000 T02820226

More Conditions Fewer Conditions

10-Day Weather Forecast

×

Almanac

Astronomy

Aug. 04, 2015 Rise Set
Actual Time
Civil Twilight
Nautical Twilight
Astronomical Twilight
Moon
Length of Visible Light
Length of Day
Tomorrow will be .
, % of the Moon is Illuminated

Today's Extremes

State Highs State Lows

Community

WunderPhotos

Upload Photos

1,843,916 photos uploaded!

WunderBlogs® & News

Nearby

Air Quality

  Air Quality AQ Index Pollutant
Not available.

Snow Depth

Station Depth Elevation

Earthquake Activity

City Distance Mag. Time & Date
Minimum magnitude displayed is 2.5.

Coastal Water Temperatures

Place Temperature

Stations

Nearby Weather Stations

Station Location Temp. Windchill Dew Point Humidity Wind Precip. Elev Updated Type